createdAt,value
2023-01-31T00:03:44.549Z,11.4
2023-01-31T00:04:44.526Z,12.9
2023-01-31T00:05:44.331Z,12.7
2023-01-31T00:07:44.167Z,12.7
2023-01-31T00:08:44.015Z,13
2023-01-31T00:09:43.856Z,13.7
2023-01-31T00:10:43.785Z,12.3
2023-01-31T00:11:43.616Z,12.4
2023-01-31T00:12:43.637Z,12.3
2023-01-31T01:15:35.962Z,13.5
2023-01-31T01:17:35.809Z,12.9
2023-01-31T01:18:35.753Z,13.5
2023-01-31T01:19:35.637Z,13.1
2023-01-31T01:23:36.007Z,13.6
2023-01-31T01:24:35.944Z,13.1
2023-01-31T01:27:35.543Z,12.8
2023-01-31T01:36:35.478Z,12.5
2023-01-31T01:37:33.408Z,13.3
2023-01-31T01:38:33.300Z,13.5
2023-01-31T01:40:33.026Z,12.4
2023-01-31T01:41:32.898Z,13.4
2023-01-31T01:42:32.826Z,15.4
2023-01-31T01:43:32.642Z,13.1
2023-01-31T01:44:32.540Z,12.9
2023-01-31T01:45:32.450Z,13.1
2023-01-31T01:46:32.418Z,12.4
2023-01-31T01:47:32.244Z,12.4
2023-01-31T01:48:32.079Z,12.1
2023-01-31T01:49:31.972Z,13.4
2023-01-31T01:50:31.838Z,13.8
2023-01-31T01:51:31.738Z,13.5
2023-01-31T01:52:31.687Z,14.6
2023-01-31T01:53:31.461Z,13.5
2023-01-31T01:54:32.463Z,13.2
2023-01-31T01:55:31.258Z,12.5
2023-01-31T01:56:31.096Z,13.5
2023-01-31T01:57:30.994Z,13.6
2023-01-31T01:58:30.948Z,13.3
2023-01-31T01:59:30.750Z,13.1
2023-01-31T02:00:30.663Z,13.1
2023-01-31T02:01:30.604Z,14.5
2023-01-31T02:02:31.550Z,12.3
2023-01-31T02:03:30.395Z,12.4
2023-01-31T02:04:30.159Z,13.4
2023-01-31T02:05:30.165Z,14.1
2023-01-31T02:06:29.952Z,13.5
2023-01-31T02:07:29.852Z,13.7
2023-01-31T02:08:29.742Z,13.7
2023-01-31T02:09:29.598Z,13.7
2023-01-31T02:10:29.530Z,12.4
2023-01-31T02:11:30.372Z,12.2
2023-01-31T02:12:29.257Z,13.5
2023-01-31T02:13:29.137Z,14.1
2023-01-31T02:14:29.009Z,14
2023-01-31T02:15:29.077Z,12.4
2023-01-31T02:16:28.774Z,13.4
2023-01-31T02:17:28.753Z,12.5
2023-01-31T02:18:28.584Z,13.8
2023-01-31T02:19:28.460Z,14.4
2023-01-31T02:20:28.553Z,14.6
2023-01-31T02:21:28.229Z,13
2023-01-31T02:22:28.075Z,12.7
2023-01-31T02:23:27.983Z,14.2
2023-01-31T02:24:27.875Z,12.3
2023-01-31T02:25:28.977Z,12.9
2023-01-31T02:26:27.601Z,13.9
2023-01-31T02:27:27.529Z,13.1
2023-01-31T02:28:27.388Z,12.7
2023-01-31T02:29:27.338Z,13.2
2023-01-31T02:30:27.220Z,12.5
2023-01-31T02:31:27.148Z,13.9
2023-01-31T02:32:26.960Z,13.3
2023-01-31T02:33:26.796Z,13.1
2023-01-31T02:34:26.751Z,14.1
2023-01-31T02:35:28.627Z,12.5
2023-01-31T02:36:26.453Z,12.8
2023-01-31T02:37:27.357Z,13.9
2023-01-31T02:38:26.209Z,12.8
2023-01-31T02:39:26.148Z,13.2
2023-01-31T02:40:26.026Z,13.4
2023-01-31T02:41:25.904Z,12.8
2023-01-31T02:42:25.869Z,13.5
2023-01-31T02:43:25.737Z,12.7
2023-01-31T02:44:25.550Z,13.9
2023-01-31T02:45:26.472Z,14
2023-01-31T02:48:26.176Z,12.9
2023-01-31T02:55:26.360Z,13.2
2023-01-31T03:05:27.183Z,12.7
2023-01-31T04:06:16.495Z,13.3
2023-01-31T04:07:16.485Z,12.9
2023-01-31T04:08:16.269Z,13.3
2023-01-31T04:10:16.104Z,12.7
2023-01-31T04:11:15.905Z,13.2
2023-01-31T04:12:15.841Z,14
2023-01-31T04:13:15.744Z,13.2
2023-01-31T04:14:15.622Z,14.5
2023-01-31T04:15:15.565Z,13
2023-01-31T04:17:16.346Z,13.6
2023-01-31T05:37:06.708Z,13.7
2023-01-31T05:38:06.523Z,13.3
2023-01-31T05:39:06.541Z,12.6
2023-01-31T05:40:06.272Z,12.1
2023-01-31T05:41:06.208Z,13
2023-01-31T05:42:06.100Z,12.9
2023-01-31T05:43:06.090Z,13.9
2023-01-31T05:44:05.980Z,12.8
2023-01-31T05:45:05.849Z,12.4
2023-01-31T05:46:05.704Z,12.9
2023-01-31T05:47:05.630Z,13.1
2023-01-31T05:50:06.212Z,13.2
2023-01-31T05:53:05.967Z,13.1
2023-01-31T07:10:56.635Z,13
2023-01-31T07:11:56.500Z,11.4
2023-01-31T07:12:56.434Z,13.6
2023-01-31T07:13:56.298Z,12.4
2023-01-31T07:14:56.254Z,11.1
2023-01-31T07:15:56.217Z,11.6
2023-01-31T07:16:55.975Z,12.9
2023-01-31T07:17:55.873Z,12.5
2023-01-31T07:18:55.762Z,11.2
2023-01-31T07:19:55.710Z,11.6
2023-01-31T07:20:55.782Z,12.8
2023-01-31T07:21:55.531Z,11.8
2023-01-31T07:26:56.240Z,12.5
2023-01-31T07:27:55.769Z,11.3
2023-01-31T08:44:46.586Z,11.8
2023-01-31T08:45:46.491Z,13.5
2023-01-31T08:46:46.337Z,10.2
2023-01-31T08:47:46.284Z,10.1
2023-01-31T08:48:47.166Z,11.4
2023-01-31T08:49:46.132Z,10
2023-01-31T08:50:45.933Z,10.2
2023-01-31T08:51:45.817Z,9.5
2023-01-31T08:52:45.725Z,10.4
2023-01-31T08:53:45.687Z,9.9
2023-01-31T08:54:45.548Z,9.5
2023-01-31T08:57:58.371Z,11.1
2023-01-31T08:58:47.043Z,10.5
2023-01-31T09:07:45.541Z,10.3
2023-01-31T10:22:36.644Z,10.6
2023-01-31T10:23:36.681Z,10.9
2023-01-31T10:25:36.336Z,12.7
2023-01-31T10:27:36.127Z,13.1
2023-01-31T10:28:36.115Z,11.9
2023-01-31T10:29:35.947Z,12.6
2023-01-31T10:32:35.658Z,12.8
2023-01-31T10:33:36.674Z,9.8
2023-01-31T10:34:35.492Z,7.9
2023-01-31T10:56:01.010Z,11.1
2023-01-31T10:57:01.058Z,10.2
2023-01-31T10:58:01.083Z,8.1
2023-01-31T10:59:01.007Z,9.7
2023-01-31T10:59:48.302Z,8
